sensor_id;sensor_type;location;lat;lon;timestamp;temperature;humidity
16200;DHT22;8207;52.494;4.654;2022-10-17T00:00:44;13.80;99.90
16200;DHT22;8207;52.494;4.654;2022-10-17T00:03:11;13.80;99.90
16200;DHT22;8207;52.494;4.654;2022-10-17T00:05:41;13.80;99.90
16200;DHT22;8207;52.494;4.654;2022-10-17T00:08:09;13.80;99.90
16200;DHT22;8207;52.494;4.654;2022-10-17T00:10:38;13.80;99.90
16200;DHT22;8207;52.494;4.654;2022-10-17T00:13:05;13.80;99.90
16200;DHT22;8207;52.494;4.654;2022-10-17T00:15:32;13.70;99.90
16200;DHT22;8207;52.494;4.654;2022-10-17T00:18:02;13.70;99.90
16200;DHT22;8207;52.494;4.654;2022-10-17T00:20:29;13.70;99.90
16200;DHT22;8207;52.494;4.654;2022-10-17T00:22:57;13.70;99.90
16200;DHT22;8207;52.494;4.654;2022-10-17T00:25:25;13.70;99.90
16200;DHT22;8207;52.494;4.654;2022-10-17T00:27:53;13.70;99.90
16200;DHT22;8207;52.494;4.654;2022-10-17T00:30:20;13.70;99.90
16200;DHT22;8207;52.494;4.654;2022-10-17T00:32:47;13.70;99.90
16200;DHT22;8207;52.494;4.654;2022-10-17T00:35:13;13.60;99.90
16200;DHT22;8207;52.494;4.654;2022-10-17T00:37:40;13.60;99.90
16200;DHT22;8207;52.494;4.654;2022-10-17T00:40:09;13.60;99.90
16200;DHT22;8207;52.494;4.654;2022-10-17T00:42:36;13.60;99.90
16200;DHT22;8207;52.494;4.654;2022-10-17T00:45:15;13.60;99.90
16200;DHT22;8207;52.494;4.654;2022-10-17T00:47:43;13.60;99.90
16200;DHT22;8207;52.494;4.654;2022-10-17T00:50:12;13.60;99.90
16200;DHT22;8207;52.494;4.654;2022-10-17T00:52:40;13.60;99.90
16200;DHT22;8207;52.494;4.654;2022-10-17T00:55:11;13.60;99.90
16200;DHT22;8207;52.494;4.654;2022-10-17T00:57:40;13.60;99.90
16200;DHT22;8207;52.494;4.654;2022-10-17T01:00:10;13.60;99.90
16200;DHT22;8207;52.494;4.654;2022-10-17T01:02:37;13.60;99.90
16200;DHT22;8207;52.494;4.654;2022-10-17T01:05:06;13.60;99.90
16200;DHT22;8207;52.494;4.654;2022-10-17T01:07:33;13.60;99.90
16200;DHT22;8207;52.494;4.654;2022-10-17T01:10:00;13.50;99.90
16200;DHT22;8207;52.494;4.654;2022-10-17T01:12:34;13.50;99.90
16200;DHT22;8207;52.494;4.654;2022-10-17T01:15:11;13.50;99.90
16200;DHT22;8207;52.494;4.654;2022-10-17T01:17:50;13.50;99.90
16200;DHT22;8207;52.494;4.654;2022-10-17T01:20:54;13.50;99.90
16200;DHT22;8207;52.494;4.654;2022-10-17T01:23:33;13.50;99.90
16200;DHT22;8207;52.494;4.654;2022-10-17T01:26:12;13.50;99.90
16200;DHT22;8207;52.494;4.654;2022-10-17T01:29:02;13.50;99.90
16200;DHT22;8207;52.494;4.654;2022-10-17T01:31:37;13.50;99.90
16200;DHT22;8207;52.494;4.654;2022-10-17T01:34:13;13.50;99.90
16200;DHT22;8207;52.494;4.654;2022-10-17T01:36:48;13.50;99.90
16200;DHT22;8207;52.494;4.654;2022-10-17T01:39:22;13.50;99.90
16200;DHT22;8207;52.494;4.654;2022-10-17T01:41:54;13.50;99.90
16200;DHT22;8207;52.494;4.654;2022-10-17T01:44:28;13.50;99.90
16200;DHT22;8207;52.494;4.654;2022-10-17T01:47:03;13.50;99.90
16200;DHT22;8207;52.494;4.654;2022-10-17T01:49:32;13.50;99.90
16200;DHT22;8207;52.494;4.654;2022-10-17T01:52:03;13.60;99.90
16200;DHT22;8207;52.494;4.654;2022-10-17T01:54:38;13.60;99.90
16200;DHT22;8207;52.494;4.654;2022-10-17T01:57:09;13.60;99.90
16200;DHT22;8207;52.494;4.654;2022-10-17T01:59:39;13.60;99.90
16200;DHT22;8207;52.494;4.654;2022-10-17T02:02:09;13.60;99.90
16200;DHT22;8207;52.494;4.654;2022-10-17T02:04:37;13.60;99.90
16200;DHT22;8207;52.494;4.654;2022-10-17T02:07:08;13.60;99.90
16200;DHT22;8207;52.494;4.654;2022-10-17T02:09:35;13.60;99.90
16200;DHT22;8207;52.494;4.654;2022-10-17T02:12:27;13.60;99.90
16200;DHT22;8207;52.494;4.654;2022-10-17T02:15:09;13.60;99.90
16200;DHT22;8207;52.494;4.654;2022-10-17T02:17:47;13.60;99.90
16200;DHT22;8207;52.494;4.654;2022-10-17T02:20:20;13.60;99.90
16200;DHT22;8207;52.494;4.654;2022-10-17T02:22:53;13.60;99.90
16200;DHT22;8207;52.494;4.654;2022-10-17T02:25:29;13.70;99.90
16200;DHT22;8207;52.494;4.654;2022-10-17T02:28:03;13.70;99.90
16200;DHT22;8207;52.494;4.654;2022-10-17T02:30:36;13.70;99.90
16200;DHT22;8207;52.494;4.654;2022-10-17T02:33:10;13.70;99.90
16200;DHT22;8207;52.494;4.654;2022-10-17T02:35:40;13.70;99.90
16200;DHT22;8207;52.494;4.654;2022-10-17T02:38:10;13.70;99.90
16200;DHT22;8207;52.494;4.654;2022-10-17T02:40:38;13.80;99.90
16200;DHT22;8207;52.494;4.654;2022-10-17T02:43:06;13.80;99.90
16200;DHT22;8207;52.494;4.654;2022-10-17T02:45:35;13.80;99.90
16200;DHT22;8207;52.494;4.654;2022-10-17T02:48:05;13.90;99.90
16200;DHT22;8207;52.494;4.654;2022-10-17T02:50:42;13.90;99.90
16200;DHT22;8207;52.494;4.654;2022-10-17T02:53:14;14.00;99.90
16200;DHT22;8207;52.494;4.654;2022-10-17T02:55:47;14.10;99.90
16200;DHT22;8207;52.494;4.654;2022-10-17T02:58:19;14.20;99.90
16200;DHT22;8207;52.494;4.654;2022-10-17T03:00:47;14.30;99.90
16200;DHT22;8207;52.494;4.654;2022-10-17T03:03:19;14.30;99.90
16200;DHT22;8207;52.494;4.654;2022-10-17T03:05:48;14.40;99.90
16200;DHT22;8207;52.494;4.654;2022-10-17T03:08:15;14.40;99.90
16200;DHT22;8207;52.494;4.654;2022-10-17T03:10:42;14.40;99.90
16200;DHT22;8207;52.494;4.654;2022-10-17T03:13:09;14.50;99.90
16200;DHT22;8207;52.494;4.654;2022-10-17T03:15:36;14.50;99.90
16200;DHT22;8207;52.494;4.654;2022-10-17T03:18:03;14.50;99.90
16200;DHT22;8207;52.494;4.654;2022-10-17T03:20:30;14.50;99.90
16200;DHT22;8207;52.494;4.654;2022-10-17T03:22:59;14.50;99.90
16200;DHT22;8207;52.494;4.654;2022-10-17T03:25:25;14.50;99.90
16200;DHT22;8207;52.494;4.654;2022-10-17T03:27:52;14.60;99.90
16200;DHT22;8207;52.494;4.654;2022-10-17T03:30:19;14.60;99.90
16200;DHT22;8207;52.494;4.654;2022-10-17T03:32:46;14.60;99.90
16200;DHT22;8207;52.494;4.654;2022-10-17T03:35:13;14.60;99.90
16200;DHT22;8207;52.494;4.654;2022-10-17T03:37:40;14.60;99.90
16200;DHT22;8207;52.494;4.654;2022-10-17T03:40:09;14.60;99.90
16200;DHT22;8207;52.494;4.654;2022-10-17T03:42:36;14.60;99.90
16200;DHT22;8207;52.494;4.654;2022-10-17T03:45:03;14.60;99.90
16200;DHT22;8207;52.494;4.654;2022-10-17T03:47:30;14.60;99.90
16200;DHT22;8207;52.494;4.654;2022-10-17T03:49:57;14.70;99.90
16200;DHT22;8207;52.494;4.654;2022-10-17T03:52:24;14.70;99.90
16200;DHT22;8207;52.494;4.654;2022-10-17T03:54:51;14.70;99.90
16200;DHT22;8207;52.494;4.654;2022-10-17T03:57:19;14.70;99.90
16200;DHT22;8207;52.494;4.654;2022-10-17T03:59:46;14.80;99.90
16200;DHT22;8207;52.494;4.654;2022-10-17T04:02:13;14.80;99.90
16200;DHT22;8207;52.494;4.654;2022-10-17T04:04:40;14.80;99.90
16200;DHT22;8207;52.494;4.654;2022-10-17T04:07:06;14.80;99.90
16200;DHT22;8207;52.494;4.654;2022-10-17T04:09:33;14.80;99.90
16200;DHT22;8207;52.494;4.654;2022-10-17T04:12:00;14.80;99.90
16200;DHT22;8207;52.494;4.654;2022-10-17T04:14:29;14.80;99.90
16200;DHT22;8207;52.494;4.654;2022-10-17T04:16:55;14.80;99.90
16200;DHT22;8207;52.494;4.654;2022-10-17T04:19:23;14.80;99.90
16200;DHT22;8207;52.494;4.654;2022-10-17T04:21:50;14.80;99.90
16200;DHT22;8207;52.494;4.654;2022-10-17T04:24:17;14.80;99.90
16200;DHT22;8207;52.494;4.654;2022-10-17T04:26:44;14.80;99.90
16200;DHT22;8207;52.494;4.654;2022-10-17T04:29:11;14.80;99.90
16200;DHT22;8207;52.494;4.654;2022-10-17T04:31:39;14.80;99.90
16200;DHT22;8207;52.494;4.654;2022-10-17T04:34:06;14.80;99.90
16200;DHT22;8207;52.494;4.654;2022-10-17T04:36:33;14.80;99.90
16200;DHT22;8207;52.494;4.654;2022-10-17T04:39:00;14.80;99.90
16200;DHT22;8207;52.494;4.654;2022-10-17T04:41:28;14.80;99.90
16200;DHT22;8207;52.494;4.654;2022-10-17T04:43:54;14.80;99.90
16200;DHT22;8207;52.494;4.654;2022-10-17T04:46:21;14.90;99.90
16200;DHT22;8207;52.494;4.654;2022-10-17T04:48:50;14.90;99.90
16200;DHT22;8207;52.494;4.654;2022-10-17T04:51:17;14.90;99.90
16200;DHT22;8207;52.494;4.654;2022-10-17T04:53:44;14.90;99.90
16200;DHT22;8207;52.494;4.654;2022-10-17T04:56:13;14.90;99.90
16200;DHT22;8207;52.494;4.654;2022-10-17T04:58:41;14.90;99.90
16200;DHT22;8207;52.494;4.654;2022-10-17T05:01:11;15.00;99.90
16200;DHT22;8207;52.494;4.654;2022-10-17T05:03:38;15.10;99.90
16200;DHT22;8207;52.494;4.654;2022-10-17T05:06:10;15.10;99.90
16200;DHT22;8207;52.494;4.654;2022-10-17T05:08:38;15.10;99.90
16200;DHT22;8207;52.494;4.654;2022-10-17T05:11:05;15.20;99.90
16200;DHT22;8207;52.494;4.654;2022-10-17T05:13:40;15.20;99.90
16200;DHT22;8207;52.494;4.654;2022-10-17T05:16:07;15.20;99.90
16200;DHT22;8207;52.494;4.654;2022-10-17T05:18:34;15.20;99.90
16200;DHT22;8207;52.494;4.654;2022-10-17T05:21:03;15.20;99.90
16200;DHT22;8207;52.494;4.654;2022-10-17T05:23:31;15.30;99.90
16200;DHT22;8207;52.494;4.654;2022-10-17T05:25:58;15.40;99.90
16200;DHT22;8207;52.494;4.654;2022-10-17T05:28:25;15.40;99.90
16200;DHT22;8207;52.494;4.654;2022-10-17T05:30:52;15.30;99.90
16200;DHT22;8207;52.494;4.654;2022-10-17T05:33:18;15.30;99.90
16200;DHT22;8207;52.494;4.654;2022-10-17T05:35:45;15.40;99.90
16200;DHT22;8207;52.494;4.654;2022-10-17T05:38:12;15.40;99.90
16200;DHT22;8207;52.494;4.654;2022-10-17T05:40:40;15.40;99.90
16200;DHT22;8207;52.494;4.654;2022-10-17T05:43:07;15.50;99.90
16200;DHT22;8207;52.494;4.654;2022-10-17T05:45:35;15.60;99.90
16200;DHT22;8207;52.494;4.654;2022-10-17T05:48:01;15.60;99.90
16200;DHT22;8207;52.494;4.654;2022-10-17T05:50:28;15.60;99.90
16200;DHT22;8207;52.494;4.654;2022-10-17T05:52:55;15.60;99.90
16200;DHT22;8207;52.494;4.654;2022-10-17T05:55:22;15.70;99.90
16200;DHT22;8207;52.494;4.654;2022-10-17T05:57:50;15.80;99.90
16200;DHT22;8207;52.494;4.654;2022-10-17T06:00:19;15.70;99.90
16200;DHT22;8207;52.494;4.654;2022-10-17T06:02:46;15.80;99.90
16200;DHT22;8207;52.494;4.654;2022-10-17T06:05:13;15.80;99.90
16200;DHT22;8207;52.494;4.654;2022-10-17T06:07:41;15.80;99.90
16200;DHT22;8207;52.494;4.654;2022-10-17T06:10:09;15.80;99.90
16200;DHT22;8207;52.494;4.654;2022-10-17T06:12:40;15.80;99.90
16200;DHT22;8207;52.494;4.654;2022-10-17T06:15:09;15.80;99.90
16200;DHT22;8207;52.494;4.654;2022-10-17T06:17:37;15.90;99.90
16200;DHT22;8207;52.494;4.654;2022-10-17T06:20:04;15.80;99.90
16200;DHT22;8207;52.494;4.654;2022-10-17T06:22:31;15.80;99.90
16200;DHT22;8207;52.494;4.654;2022-10-17T06:24:58;15.80;99.90
16200;DHT22;8207;52.494;4.654;2022-10-17T06:27:25;15.90;99.90
16200;DHT22;8207;52.494;4.654;2022-10-17T06:29:52;15.90;99.90
16200;DHT22;8207;52.494;4.654;2022-10-17T06:32:20;15.90;99.90
16200;DHT22;8207;52.494;4.654;2022-10-17T06:34:47;15.90;99.90
16200;DHT22;8207;52.494;4.654;2022-10-17T06:37:14;15.90;99.90
16200;DHT22;8207;52.494;4.654;2022-10-17T06:39:41;16.00;99.90
16200;DHT22;8207;52.494;4.654;2022-10-17T06:42:08;16.00;99.90
16200;DHT22;8207;52.494;4.654;2022-10-17T06:44:34;16.00;99.90
16200;DHT22;8207;52.494;4.654;2022-10-17T06:47:01;16.00;99.90
16200;DHT22;8207;52.494;4.654;2022-10-17T06:49:30;16.00;99.90
16200;DHT22;8207;52.494;4.654;2022-10-17T06:51:58;16.10;99.90
16200;DHT22;8207;52.494;4.654;2022-10-17T06:54:25;16.00;99.90
16200;DHT22;8207;52.494;4.654;2022-10-17T06:56:52;16.10;99.90
16200;DHT22;8207;52.494;4.654;2022-10-17T06:59:20;16.10;99.90
16200;DHT22;8207;52.494;4.654;2022-10-17T07:01:47;16.10;99.90
16200;DHT22;8207;52.494;4.654;2022-10-17T07:04:14;16.10;99.90
16200;DHT22;8207;52.494;4.654;2022-10-17T07:06:43;16.10;99.90
16200;DHT22;8207;52.494;4.654;2022-10-17T07:09:10;16.00;99.90
16200;DHT22;8207;52.494;4.654;2022-10-17T07:11:37;16.00;99.90
16200;DHT22;8207;52.494;4.654;2022-10-17T07:14:04;16.00;99.90
16200;DHT22;8207;52.494;4.654;2022-10-17T07:16:33;16.00;99.90
16200;DHT22;8207;52.494;4.654;2022-10-17T07:19:00;16.00;99.90
16200;DHT22;8207;52.494;4.654;2022-10-17T07:21:27;16.00;99.90
16200;DHT22;8207;52.494;4.654;2022-10-17T07:23:55;16.00;99.90
16200;DHT22;8207;52.494;4.654;2022-10-17T07:26:22;16.00;99.90
16200;DHT22;8207;52.494;4.654;2022-10-17T07:28:52;15.90;99.90
16200;DHT22;8207;52.494;4.654;2022-10-17T07:31:21;15.90;99.90
16200;DHT22;8207;52.494;4.654;2022-10-17T07:33:49;15.90;99.90
16200;DHT22;8207;52.494;4.654;2022-10-17T07:36:16;16.00;99.90
16200;DHT22;8207;52.494;4.654;2022-10-17T07:38:44;16.00;99.90
16200;DHT22;8207;52.494;4.654;2022-10-17T07:41:12;15.90;99.90
16200;DHT22;8207;52.494;4.654;2022-10-17T07:43:39;16.00;99.90
16200;DHT22;8207;52.494;4.654;2022-10-17T07:46:07;16.00;99.90
16200;DHT22;8207;52.494;4.654;2022-10-17T07:48:36;16.00;99.90
16200;DHT22;8207;52.494;4.654;2022-10-17T07:51:05;16.00;99.90
16200;DHT22;8207;52.494;4.654;2022-10-17T07:53:34;16.10;99.90
16200;DHT22;8207;52.494;4.654;2022-10-17T07:56:03;16.10;99.90
16200;DHT22;8207;52.494;4.654;2022-10-17T07:58:32;16.10;99.90
16200;DHT22;8207;52.494;4.654;2022-10-17T08:01:00;16.20;99.90
16200;DHT22;8207;52.494;4.654;2022-10-17T08:03:27;16.20;99.90
16200;DHT22;8207;52.494;4.654;2022-10-17T08:05:56;16.20;99.90
16200;DHT22;8207;52.494;4.654;2022-10-17T08:08:23;16.20;99.90
16200;DHT22;8207;52.494;4.654;2022-10-17T08:10:50;16.20;99.90
16200;DHT22;8207;52.494;4.654;2022-10-17T08:13:17;16.20;99.90
16200;DHT22;8207;52.494;4.654;2022-10-17T08:15:46;16.30;99.90
16200;DHT22;8207;52.494;4.654;2022-10-17T08:18:13;16.40;99.90
16200;DHT22;8207;52.494;4.654;2022-10-17T08:20:40;16.40;99.90
16200;DHT22;8207;52.494;4.654;2022-10-17T08:23:07;16.50;99.90
16200;DHT22;8207;52.494;4.654;2022-10-17T08:25:36;16.40;99.90
16200;DHT22;8207;52.494;4.654;2022-10-17T08:28:04;16.50;99.90
16200;DHT22;8207;52.494;4.654;2022-10-17T08:30:31;16.50;99.90
16200;DHT22;8207;52.494;4.654;2022-10-17T08:32:59;16.60;99.90
16200;DHT22;8207;52.494;4.654;2022-10-17T08:35:26;16.60;99.90
16200;DHT22;8207;52.494;4.654;2022-10-17T08:37:53;16.60;99.90
16200;DHT22;8207;52.494;4.654;2022-10-17T08:40:23;16.60;99.90
16200;DHT22;8207;52.494;4.654;2022-10-17T08:43:05;16.60;99.90
16200;DHT22;8207;52.494;4.654;2022-10-17T08:45:42;16.70;99.90
16200;DHT22;8207;52.494;4.654;2022-10-17T08:48:16;16.70;99.90
16200;DHT22;8207;52.494;4.654;2022-10-17T08:50:47;16.70;99.90
16200;DHT22;8207;52.494;4.654;2022-10-17T08:53:20;16.70;99.90
16200;DHT22;8207;52.494;4.654;2022-10-17T08:55:50;16.70;99.90
16200;DHT22;8207;52.494;4.654;2022-10-17T08:58:19;16.70;99.90
16200;DHT22;8207;52.494;4.654;2022-10-17T09:01:00;16.70;99.90
16200;DHT22;8207;52.494;4.654;2022-10-17T09:03:41;16.70;99.90
16200;DHT22;8207;52.494;4.654;2022-10-17T09:06:17;16.70;99.90
16200;DHT22;8207;52.494;4.654;2022-10-17T09:08:53;16.60;99.90
16200;DHT22;8207;52.494;4.654;2022-10-17T09:11:42;16.70;99.90
16200;DHT22;8207;52.494;4.654;2022-10-17T09:14:26;16.70;99.90
16200;DHT22;8207;52.494;4.654;2022-10-17T09:17:06;16.70;99.90
16200;DHT22;8207;52.494;4.654;2022-10-17T09:19:38;16.70;99.90
16200;DHT22;8207;52.494;4.654;2022-10-17T09:22:09;16.80;99.90
16200;DHT22;8207;52.494;4.654;2022-10-17T09:24:41;16.80;99.90
16200;DHT22;8207;52.494;4.654;2022-10-17T09:27:17;16.80;99.90
16200;DHT22;8207;52.494;4.654;2022-10-17T09:29:48;16.80;99.90
16200;DHT22;8207;52.494;4.654;2022-10-17T09:32:20;16.80;99.90
16200;DHT22;8207;52.494;4.654;2022-10-17T09:34:50;16.80;99.90
16200;DHT22;8207;52.494;4.654;2022-10-17T09:37:17;16.80;99.90
16200;DHT22;8207;52.494;4.654;2022-10-17T09:39:45;16.80;99.90
16200;DHT22;8207;52.494;4.654;2022-10-17T09:42:14;16.70;99.90
16200;DHT22;8207;52.494;4.654;2022-10-17T09:44:48;16.70;99.90
16200;DHT22;8207;52.494;4.654;2022-10-17T09:47:25;16.70;99.90
16200;DHT22;8207;52.494;4.654;2022-10-17T09:49:55;16.70;99.90
16200;DHT22;8207;52.494;4.654;2022-10-17T09:52:26;16.70;99.90
16200;DHT22;8207;52.494;4.654;2022-10-17T09:54:57;16.70;99.90
16200;DHT22;8207;52.494;4.654;2022-10-17T09:57:25;16.70;99.90
16200;DHT22;8207;52.494;4.654;2022-10-17T09:59:57;16.70;99.90
16200;DHT22;8207;52.494;4.654;2022-10-17T10:02:25;16.70;99.90
16200;DHT22;8207;52.494;4.654;2022-10-17T10:04:59;16.70;99.90
16200;DHT22;8207;52.494;4.654;2022-10-17T10:07:28;16.70;99.90
16200;DHT22;8207;52.494;4.654;2022-10-17T10:09:55;16.70;99.90
16200;DHT22;8207;52.494;4.654;2022-10-17T10:12:28;16.70;99.90
16200;DHT22;8207;52.494;4.654;2022-10-17T10:14:55;16.70;99.90
16200;DHT22;8207;52.494;4.654;2022-10-17T10:17:38;16.70;99.90
16200;DHT22;8207;52.494;4.654;2022-10-17T10:20:26;16.70;99.90
16200;DHT22;8207;52.494;4.654;2022-10-17T10:23:15;16.70;99.90
16200;DHT22;8207;52.494;4.654;2022-10-17T10:25:52;16.70;99.90
16200;DHT22;8207;52.494;4.654;2022-10-17T10:28:21;16.70;99.90
16200;DHT22;8207;52.494;4.654;2022-10-17T10:30:50;16.70;99.90
16200;DHT22;8207;52.494;4.654;2022-10-17T10:33:19;16.60;99.90
16200;DHT22;8207;52.494;4.654;2022-10-17T10:35:54;16.60;99.90
16200;DHT22;8207;52.494;4.654;2022-10-17T10:38:22;16.60;99.90
16200;DHT22;8207;52.494;4.654;2022-10-17T10:40:51;16.50;99.90
16200;DHT22;8207;52.494;4.654;2022-10-17T10:43:26;16.60;99.90
16200;DHT22;8207;52.494;4.654;2022-10-17T10:45:57;16.50;99.90
16200;DHT22;8207;52.494;4.654;2022-10-17T10:48:25;16.50;99.90
16200;DHT22;8207;52.494;4.654;2022-10-17T10:50:56;16.50;99.90
16200;DHT22;8207;52.494;4.654;2022-10-17T10:53:37;16.50;99.90
16200;DHT22;8207;52.494;4.654;2022-10-17T10:56:08;16.50;99.90
16200;DHT22;8207;52.494;4.654;2022-10-17T10:58:41;16.50;99.90
16200;DHT22;8207;52.494;4.654;2022-10-17T11:01:14;16.50;99.90
16200;DHT22;8207;52.494;4.654;2022-10-17T11:03:53;16.50;99.90
16200;DHT22;8207;52.494;4.654;2022-10-17T11:06:26;16.50;99.90
16200;DHT22;8207;52.494;4.654;2022-10-17T11:09:05;16.50;99.90
16200;DHT22;8207;52.494;4.654;2022-10-17T11:11:39;16.50;99.90
16200;DHT22;8207;52.494;4.654;2022-10-17T11:14:12;16.50;99.90
16200;DHT22;8207;52.494;4.654;2022-10-17T11:16:45;16.50;99.90
16200;DHT22;8207;52.494;4.654;2022-10-17T11:19:17;16.50;99.90
16200;DHT22;8207;52.494;4.654;2022-10-17T11:21:55;16.50;99.90
16200;DHT22;8207;52.494;4.654;2022-10-17T11:24:27;16.50;99.90
16200;DHT22;8207;52.494;4.654;2022-10-17T11:26:59;16.50;99.90
16200;DHT22;8207;52.494;4.654;2022-10-17T11:29:28;16.50;99.90
16200;DHT22;8207;52.494;4.654;2022-10-17T11:31:57;16.50;99.90
16200;DHT22;8207;52.494;4.654;2022-10-17T11:34:27;16.50;99.90
16200;DHT22;8207;52.494;4.654;2022-10-17T11:37:01;16.60;99.90
16200;DHT22;8207;52.494;4.654;2022-10-17T11:39:32;16.60;99.90
16200;DHT22;8207;52.494;4.654;2022-10-17T11:42:05;16.60;99.90
16200;DHT22;8207;52.494;4.654;2022-10-17T11:44:34;16.60;99.90
16200;DHT22;8207;52.494;4.654;2022-10-17T11:47:10;16.70;99.90
16200;DHT22;8207;52.494;4.654;2022-10-17T11:49:43;16.70;99.90
16200;DHT22;8207;52.494;4.654;2022-10-17T11:52:24;16.70;99.90
16200;DHT22;8207;52.494;4.654;2022-10-17T11:54:54;16.70;99.90
16200;DHT22;8207;52.494;4.654;2022-10-17T11:57:36;16.70;99.90
16200;DHT22;8207;52.494;4.654;2022-10-17T12:00:31;16.80;99.90
16200;DHT22;8207;52.494;4.654;2022-10-17T12:03:07;16.80;99.90
16200;DHT22;8207;52.494;4.654;2022-10-17T12:05:43;16.80;99.90
16200;DHT22;8207;52.494;4.654;2022-10-17T12:08:22;16.80;99.90
16200;DHT22;8207;52.494;4.654;2022-10-17T12:10:54;16.80;99.90
16200;DHT22;8207;52.494;4.654;2022-10-17T12:13:50;16.80;99.90
16200;DHT22;8207;52.494;4.654;2022-10-17T12:16:43;16.80;99.90
16200;DHT22;8207;52.494;4.654;2022-10-17T12:19:29;16.80;99.90
16200;DHT22;8207;52.494;4.654;2022-10-17T12:22:02;16.80;99.90
16200;DHT22;8207;52.494;4.654;2022-10-17T12:24:39;16.80;99.90
16200;DHT22;8207;52.494;4.654;2022-10-17T12:27:37;16.80;99.90
16200;DHT22;8207;52.494;4.654;2022-10-17T12:30:18;16.80;99.90
16200;DHT22;8207;52.494;4.654;2022-10-17T12:32:58;16.80;99.90
16200;DHT22;8207;52.494;4.654;2022-10-17T12:35:28;16.80;99.90
16200;DHT22;8207;52.494;4.654;2022-10-17T12:38:13;16.80;99.90
16200;DHT22;8207;52.494;4.654;2022-10-17T12:40:53;16.90;99.90
16200;DHT22;8207;52.494;4.654;2022-10-17T12:43:45;16.90;99.90
16200;DHT22;8207;52.494;4.654;2022-10-17T12:46:12;16.80;99.90
16200;DHT22;8207;52.494;4.654;2022-10-17T12:49:01;16.80;99.90
16200;DHT22;8207;52.494;4.654;2022-10-17T12:52:13;16.90;99.90
16200;DHT22;8207;52.494;4.654;2022-10-17T12:54:43;16.90;99.90
16200;DHT22;8207;52.494;4.654;2022-10-17T12:57:19;16.90;99.90
16200;DHT22;8207;52.494;4.654;2022-10-17T12:59:47;17.00;99.90
16200;DHT22;8207;52.494;4.654;2022-10-17T13:02:18;17.00;99.90
16200;DHT22;8207;52.494;4.654;2022-10-17T13:04:47;17.00;99.90
16200;DHT22;8207;52.494;4.654;2022-10-17T13:07:19;17.10;99.90
16200;DHT22;8207;52.494;4.654;2022-10-17T13:09:48;17.10;99.90
16200;DHT22;8207;52.494;4.654;2022-10-17T13:12:21;17.10;99.90
16200;DHT22;8207;52.494;4.654;2022-10-17T13:14:50;17.20;99.90
16200;DHT22;8207;52.494;4.654;2022-10-17T13:17:23;17.10;99.90
16200;DHT22;8207;52.494;4.654;2022-10-17T13:19:50;17.10;99.90
16200;DHT22;8207;52.494;4.654;2022-10-17T13:22:19;17.10;99.90
16200;DHT22;8207;52.494;4.654;2022-10-17T13:24:47;17.10;99.90
16200;DHT22;8207;52.494;4.654;2022-10-17T13:27:25;17.10;99.90
16200;DHT22;8207;52.494;4.654;2022-10-17T13:29:52;17.10;99.90
16200;DHT22;8207;52.494;4.654;2022-10-17T13:32:22;17.10;99.90
16200;DHT22;8207;52.494;4.654;2022-10-17T13:35:05;17.10;99.90
16200;DHT22;8207;52.494;4.654;2022-10-17T13:37:33;17.00;99.90
16200;DHT22;8207;52.494;4.654;2022-10-17T13:40:00;17.10;99.90
16200;DHT22;8207;52.494;4.654;2022-10-17T13:42:35;17.10;99.90
16200;DHT22;8207;52.494;4.654;2022-10-17T13:45:04;17.10;99.90
16200;DHT22;8207;52.494;4.654;2022-10-17T13:47:38;17.20;99.90
16200;DHT22;8207;52.494;4.654;2022-10-17T13:50:05;17.20;99.90
16200;DHT22;8207;52.494;4.654;2022-10-17T13:52:33;17.20;99.90
16200;DHT22;8207;52.494;4.654;2022-10-17T13:55:06;17.30;99.90
16200;DHT22;8207;52.494;4.654;2022-10-17T13:57:35;17.40;99.90
16200;DHT22;8207;52.494;4.654;2022-10-17T14:00:05;17.40;99.90
16200;DHT22;8207;52.494;4.654;2022-10-17T14:02:34;17.40;99.90
16200;DHT22;8207;52.494;4.654;2022-10-17T14:05:08;17.40;99.90
16200;DHT22;8207;52.494;4.654;2022-10-17T14:07:38;17.40;99.90
16200;DHT22;8207;52.494;4.654;2022-10-17T14:10:17;17.40;99.90
16200;DHT22;8207;52.494;4.654;2022-10-17T14:12:46;17.40;99.90
16200;DHT22;8207;52.494;4.654;2022-10-17T14:15:14;17.40;99.90
16200;DHT22;8207;52.494;4.654;2022-10-17T14:17:42;17.40;99.90
16200;DHT22;8207;52.494;4.654;2022-10-17T14:20:16;17.40;99.90
16200;DHT22;8207;52.494;4.654;2022-10-17T14:22:45;17.50;99.90
16200;DHT22;8207;52.494;4.654;2022-10-17T14:25:28;17.40;99.90
16200;DHT22;8207;52.494;4.654;2022-10-17T14:28:06;17.40;99.90
16200;DHT22;8207;52.494;4.654;2022-10-17T14:30:37;17.50;99.90
16200;DHT22;8207;52.494;4.654;2022-10-17T14:33:06;17.50;99.90
16200;DHT22;8207;52.494;4.654;2022-10-17T14:35:34;17.50;99.90
16200;DHT22;8207;52.494;4.654;2022-10-17T14:38:02;17.50;99.90
16200;DHT22;8207;52.494;4.654;2022-10-17T14:40:31;17.50;99.90
16200;DHT22;8207;52.494;4.654;2022-10-17T14:43:02;17.50;99.90
16200;DHT22;8207;52.494;4.654;2022-10-17T14:45:33;17.50;99.90
16200;DHT22;8207;52.494;4.654;2022-10-17T14:48:02;17.50;99.90
16200;DHT22;8207;52.494;4.654;2022-10-17T14:50:31;17.50;99.90
16200;DHT22;8207;52.494;4.654;2022-10-17T14:53:02;17.50;99.90
16200;DHT22;8207;52.494;4.654;2022-10-17T14:55:32;17.50;99.90
16200;DHT22;8207;52.494;4.654;2022-10-17T14:58:01;17.40;99.90
16200;DHT22;8207;52.494;4.654;2022-10-17T15:00:28;17.50;99.90
16200;DHT22;8207;52.494;4.654;2022-10-17T15:02:55;17.40;99.90
16200;DHT22;8207;52.494;4.654;2022-10-17T15:05:23;17.40;99.90
16200;DHT22;8207;52.494;4.654;2022-10-17T15:07:50;17.40;99.90
16200;DHT22;8207;52.494;4.654;2022-10-17T15:10:27;17.40;99.90
16200;DHT22;8207;52.494;4.654;2022-10-17T15:12:54;17.40;99.90
16200;DHT22;8207;52.494;4.654;2022-10-17T15:15:22;17.40;99.90
16200;DHT22;8207;52.494;4.654;2022-10-17T15:17:49;17.40;99.90
16200;DHT22;8207;52.494;4.654;2022-10-17T15:20:17;17.30;99.90
16200;DHT22;8207;52.494;4.654;2022-10-17T15:22:44;17.30;99.90
16200;DHT22;8207;52.494;4.654;2022-10-17T15:25:12;17.30;99.90
16200;DHT22;8207;52.494;4.654;2022-10-17T15:27:39;17.20;99.90
16200;DHT22;8207;52.494;4.654;2022-10-17T15:30:16;17.20;99.90
16200;DHT22;8207;52.494;4.654;2022-10-17T15:32:46;17.20;99.90
16200;DHT22;8207;52.494;4.654;2022-10-17T15:35:13;17.20;99.90
16200;DHT22;8207;52.494;4.654;2022-10-17T15:37:40;17.20;99.90
16200;DHT22;8207;52.494;4.654;2022-10-17T15:40:12;17.20;99.90
16200;DHT22;8207;52.494;4.654;2022-10-17T15:42:39;17.10;99.90
16200;DHT22;8207;52.494;4.654;2022-10-17T15:45:08;17.10;99.90
16200;DHT22;8207;52.494;4.654;2022-10-17T15:47:35;17.10;99.90
16200;DHT22;8207;52.494;4.654;2022-10-17T15:50:05;17.10;99.90
16200;DHT22;8207;52.494;4.654;2022-10-17T15:52:33;17.10;99.90
16200;DHT22;8207;52.494;4.654;2022-10-17T15:55:01;17.10;99.90
16200;DHT22;8207;52.494;4.654;2022-10-17T15:57:29;17.00;99.90
16200;DHT22;8207;52.494;4.654;2022-10-17T15:59:58;17.00;99.90
16200;DHT22;8207;52.494;4.654;2022-10-17T16:02:25;16.90;99.90
16200;DHT22;8207;52.494;4.654;2022-10-17T16:04:52;16.90;99.90
16200;DHT22;8207;52.494;4.654;2022-10-17T16:07:21;16.90;99.90